Time;durP1;ratioP1;P1;durP2;ratioP2;P2;SDS_P1;SDS_P2;PMS_P1;PMS_P2;Temp;Humidity;BMP_temperature;BMP_pressure;BME280_temperature;BME280_humidity;BME280_pressure;Samples;Min_cycle;Max_cycle;Signal;HPM_P1;HPM_P2
2022/05/03 04:00:30;;;;;;;2.20;2.10;;;6.00;99.90;;;;;;6008449;23;20206;31
2022/05/03 04:02:58;;;;;;;1.90;1.90;;;6.00;99.90;;;;;;4954028;28;20281;-71
2022/05/03 04:05:26;;;;;;;4.53;2.25;;;6.10;99.90;;;;;;4946628;28;20293;-70
2022/05/03 04:07:53;;;;;;;2.38;1.95;;;6.10;99.90;;;;;;4955508;28;20251;-70
2022/05/03 04:10:20;;;;;;;2.75;2.55;;;6.10;99.90;;;;;;4955411;28;20209;-70
2022/05/03 04:12:47;;;;;;;3.40;3.15;;;6.10;99.90;;;;;;4955943;28;20209;-69
2022/05/03 04:15:14;;;;;;;2.10;2.00;;;6.10;99.90;;;;;;4980399;23;20292;-76
2022/05/03 04:17:42;;;;;;;2.38;2.22;;;6.10;99.90;;;;;;4961135;28;20268;-76
2022/05/03 04:20:10;;;;;;;2.85;2.35;;;6.10;99.90;;;;;;4959473;28;20773;-76
2022/05/03 04:22:37;;;;;;;2.30;2.17;;;6.10;99.90;;;;;;4960800;28;20209;-76
2022/05/03 04:25:05;;;;;;;3.42;3.03;;;6.20;99.90;;;;;;4960858;28;20225;-75
2022/05/03 04:27:32;;;;;;;2.40;2.10;;;6.20;99.90;;;;;;4960765;28;20682;-76
2022/05/03 04:30:00;;;;;;;5.93;2.50;;;6.20;99.90;;;;;;4960618;28;20205;-76
2022/05/03 04:32:30;;;;;;;2.55;2.38;;;6.20;99.90;;;;;;4961102;28;20264;-76
2022/05/03 04:34:58;;;;;;;2.85;2.60;;;6.20;99.90;;;;;;4958928;28;20243;-76
2022/05/03 04:37:25;;;;;;;3.78;3.38;;;6.40;99.90;;;;;;4959863;28;20254;-77
2022/05/03 04:39:52;;;;;;;3.55;3.30;;;6.90;99.90;;;;;;4959601;28;20720;-75
2022/05/03 04:42:19;;;;;;;2.65;2.45;;;7.60;99.90;;;;;;4959753;28;20218;-76
2022/05/03 04:44:45;;;;;;;3.38;3.08;;;8.10;99.90;;;;;;4960142;28;20229;-76
2022/05/03 04:47:12;;;;;;;2.72;2.63;;;8.70;99.90;;;;;;4960126;28;20213;-75
2022/05/03 04:49:39;;;;;;;3.63;2.80;;;9.30;99.90;;;;;;4957108;28;20304;-75
2022/05/03 04:52:08;;;;;;;2.80;2.70;;;9.80;99.90;;;;;;4957412;28;20213;-75
2022/05/03 04:54:36;;;;;;;4.57;2.30;;;10.20;99.90;;;;;;4955542;28;20499;-75
2022/05/03 04:57:04;;;;;;;2.27;2.17;;;10.60;99.90;;;;;;4977416;28;20467;-75
2022/05/03 04:59:31;;;;;;;2.13;2.13;;;11.10;99.90;;;;;;4977538;28;20529;-73
2022/05/03 05:01:58;;;;;;;2.70;2.60;;;11.40;99.90;;;;;;4977637;28;20514;-75
2022/05/03 05:04:24;;;;;;;2.97;2.77;;;11.70;99.90;;;;;;4976629;28;20464;-75
2022/05/03 05:06:51;;;;;;;2.83;2.63;;;11.80;99.90;;;;;;4976638;28;20515;-75
2022/05/03 05:09:19;;;;;;;3.07;2.87;;;11.60;99.90;;;;;;4976301;28;20468;-75
2022/05/03 05:11:46;;;;;;;3.87;3.67;;;11.30;99.90;;;;;;4975043;28;20460;-75
2022/05/03 05:14:12;;;;;;;3.30;3.10;;;10.90;99.90;;;;;;4974813;28;21147;-75
2022/05/03 05:16:39;;;;;;;3.23;2.93;;;10.70;99.90;;;;;;4974618;28;21086;-74
2022/05/03 05:19:06;;;;;;;2.70;2.60;;;10.50;99.90;;;;;;4974544;28;20477;-75
2022/05/03 05:21:33;;;;;;;2.80;2.60;;;10.20;99.90;;;;;;4973110;28;20235;-75
2022/05/03 05:24:00;;;;;;;2.97;2.88;;;10.10;99.90;;;;;;4974747;28;20287;-75
2022/05/03 05:26:30;;;;;;;4.40;3.50;;;10.00;99.90;;;;;;4974504;28;20228;-75
2022/05/03 05:28:57;;;;;;;3.30;3.10;;;9.90;99.90;;;;;;4976799;28;20296;-74
2022/05/03 05:31:23;;;;;;;2.70;2.63;;;9.90;99.90;;;;;;4977132;28;20204;-75
2022/05/03 05:33:50;;;;;;;2.70;2.60;;;9.80;99.90;;;;;;4978033;28;20205;-74
2022/05/03 05:36:17;;;;;;;3.40;3.20;;;9.70;99.90;;;;;;4977432;28;20275;-74
2022/05/03 05:38:43;;;;;;;3.30;3.03;;;9.70;99.90;;;;;;4978249;28;20216;-74
2022/05/03 05:41:14;;;;;;;3.25;3.05;;;9.70;99.90;;;;;;4977705;28;20272;-74
2022/05/03 05:43:43;;;;;;;2.90;2.70;;;9.70;99.90;;;;;;4973717;28;20299;-75
2022/05/03 05:46:09;;;;;;;2.58;2.47;;;9.70;99.90;;;;;;4974962;28;20221;-75
2022/05/03 05:48:38;;;;;;;4.10;3.05;;;9.70;99.90;;;;;;4974973;28;20209;-75
2022/05/03 05:51:05;;;;;;;2.35;2.25;;;9.80;99.90;;;;;;4973319;28;20200;-74
2022/05/03 05:53:34;;;;;;;3.13;3.03;;;9.90;99.90;;;;;;4974423;28;20208;-72
2022/05/03 05:56:01;;;;;;;2.83;2.63;;;10.10;99.90;;;;;;4974059;28;20224;-75
2022/05/03 05:58:28;;;;;;;3.10;3.00;;;10.20;99.90;;;;;;4974428;28;20217;-75
2022/05/03 06:00:57;;;;;;;3.10;3.00;;;10.40;99.90;;;;;;4974335;28;20720;-74
2022/05/03 06:03:24;;;;;;;3.80;3.60;;;10.40;99.90;;;;;;4973859;28;20323;-74
2022/05/03 06:05:51;;;;;;;4.85;3.40;;;10.50;99.90;;;;;;4973209;28;20229;-74
2022/05/03 06:08:18;;;;;;;4.00;3.60;;;10.60;99.90;;;;;;4975130;28;20223;-75
2022/05/03 06:10:45;;;;;;;4.88;4.57;;;10.60;99.90;;;;;;4973852;28;20307;-74
2022/05/03 06:13:13;;;;;;;4.10;3.85;;;10.50;99.90;;;;;;4976328;28;20235;-74
2022/05/03 06:15:40;;;;;;;5.10;4.72;;;10.60;99.90;;;;;;4977418;28;20272;-75
2022/05/03 06:18:08;;;;;;;4.93;4.47;;;10.60;99.90;;;;;;4986746;28;20275;-73
2022/05/03 06:20:36;;;;;;;5.80;4.53;;;10.60;99.90;;;;;;4986336;28;20213;-73
2022/05/03 06:23:03;;;;;;;6.03;5.53;;;10.70;99.90;;;;;;4985345;28;20299;-74
2022/05/03 06:25:30;;;;;;;7.72;7.03;;;10.80;99.90;;;;;;4979680;28;20244;-74
2022/05/03 06:27:57;;;;;;;7.68;7.07;;;10.80;99.90;;;;;;4975181;28;20220;-74
2022/05/03 06:30:23;;;;;;;9.43;7.45;;;10.90;99.90;;;;;;4974242;28;20289;-75
2022/05/03 06:32:50;;;;;;;9.30;8.18;;;11.00;99.90;;;;;;4974946;28;20582;-74
2022/05/03 06:35:19;;;;;;;10.02;9.02;;;11.20;99.90;;;;;;4973833;28;20302;-74
2022/05/03 06:37:46;;;;;;;10.30;8.13;;;11.40;99.90;;;;;;4973702;28;20308;-74
2022/05/03 06:40:13;;;;;;;9.27;8.30;;;11.70;99.90;;;;;;4972855;28;20968;-74
2022/05/03 06:42:41;;;;;;;8.03;7.30;;;11.90;99.90;;;;;;4973762;28;20496;-74
2022/05/03 06:45:09;;;;;;;11.07;9.53;;;12.10;99.90;;;;;;4973722;28;20844;-74
2022/05/03 06:47:36;;;;;;;10.00;9.17;;;12.20;99.90;;;;;;4974528;28;20490;-74
2022/05/03 06:50:03;;;;;;;9.80;8.83;;;12.30;99.90;;;;;;4973684;28;20967;-75
2022/05/03 06:52:31;;;;;;;9.53;8.70;;;12.50;99.90;;;;;;4975052;28;20459;-74
2022/05/03 06:54:58;;;;;;;8.37;7.50;;;13.00;99.90;;;;;;4976768;28;20542;-74
2022/05/03 06:57:25;;;;;;;8.50;7.77;;;13.70;99.90;;;;;;4977164;28;20499;-74
2022/05/03 06:59:52;;;;;;;8.30;7.57;;;14.40;99.90;;;;;;4976009;28;20467;-74
2022/05/03 07:02:18;;;;;;;8.00;7.40;;;15.10;99.90;;;;;;4974627;28;20534;-74
2022/05/03 07:04:46;;;;;;;9.00;8.20;;;15.50;99.90;;;;;;4972015;28;21012;-75
2022/05/03 07:07:13;;;;;;;8.60;7.83;;;15.90;99.90;;;;;;4972547;28;20963;-74
2022/05/03 07:09:42;;;;;;;9.13;8.30;;;15.80;99.90;;;;;;4972159;28;20467;-75
2022/05/03 07:12:10;;;;;;;8.60;7.80;;;15.90;99.90;;;;;;4973363;28;20523;-75
2022/05/03 07:14:37;;;;;;;8.50;7.80;;;16.40;99.90;;;;;;4958369;28;20496;-74
2022/05/03 07:17:04;;;;;;;7.00;6.60;;;17.00;99.90;;;;;;4972244;28;20820;-75
2022/05/03 07:25:01;;;;;;;8.13;7.53;;;18.10;99.90;;;;;;4971972;28;20466;-74
2022/05/03 07:27:28;;;;;;;7.30;6.80;;;18.40;99.90;;;;;;4973366;28;20828;-76
2022/05/03 07:29:55;;;;;;;9.13;8.47;;;18.20;99.90;;;;;;4975510;28;20558;-74
2022/05/03 07:32:22;;;;;;;8.77;7.97;;;17.90;99.90;;;;;;4976327;28;20464;-74
2022/05/03 07:34:48;;;;;;;8.77;7.97;;;17.60;99.90;;;;;;4975968;28;20528;-74
2022/05/03 07:37:16;;;;;;;8.43;7.53;;;17.50;99.90;;;;;;4976243;28;20468;-74
2022/05/03 07:39:42;;;;;;;9.87;8.90;;;17.20;99.90;;;;;;4975625;28;20464;-73
2022/05/03 07:42:11;;;;;;;9.03;8.17;;;17.10;99.90;;;;;;4975425;28;20538;-75
2022/05/03 07:44:37;;;;;;;9.33;7.93;;;16.80;99.90;;;;;;4972733;28;20922;-75
2022/05/03 07:47:04;;;;;;;7.60;6.90;;;16.40;99.90;;;;;;4975743;28;20471;-74
2022/05/03 07:49:31;;;;;;;10.27;7.87;;;16.40;99.90;;;;;;4976601;28;20956;-75
2022/05/03 07:51:58;;;;;;;9.10;7.60;;;16.40;99.90;;;;;;4975152;28;20464;-75
2022/05/03 07:54:24;;;;;;;7.77;7.07;;;16.50;99.90;;;;;;4975012;28;20475;-75
2022/05/03 07:56:51;;;;;;;7.57;6.87;;;16.40;99.90;;;;;;4975325;28;20515;-74
2022/05/03 07:59:23;;;;;;;8.47;7.57;;;16.30;99.90;;;;;;4975452;28;20498;-75
2022/05/03 08:01:49;;;;;;;7.63;7.03;;;16.40;99.90;;;;;;4974711;28;20508;-74
2022/05/03 08:04:16;;;;;;;8.50;7.70;;;16.20;99.90;;;;;;4976513;28;20475;-75
2022/05/03 08:06:43;;;;;;;7.33;6.70;;;16.20;99.90;;;;;;4977481;28;20811;-74
2022/05/03 08:09:10;;;;;;;7.03;6.33;;;16.00;99.90;;;;;;4977558;28;20471;-75
2022/05/03 08:11:37;;;;;;;7.03;6.37;;;16.10;99.90;;;;;;4976544;28;20486;-75
2022/05/03 08:14:04;;;;;;;9.03;6.40;;;16.30;99.90;;;;;;4977769;28;20514;-75
2022/05/03 08:16:32;;;;;;;9.07;8.10;;;16.30;99.90;;;;;;4978856;28;20526;-76
2022/05/03 08:18:59;;;;;;;8.23;6.80;;;16.30;99.90;;;;;;4978373;28;20467;-76
2022/05/03 08:21:27;;;;;;;8.83;6.83;;;16.20;99.90;;;;;;4976034;28;20484;-76
2022/05/03 08:23:54;;;;;;;7.17;6.40;;;16.10;99.90;;;;;;4972004;28;20470;-76
2022/05/03 08:26:21;;;;;;;7.53;6.93;;;16.00;99.90;;;;;;4977568;28;20487;-76
2022/05/03 08:28:47;;;;;;;7.93;6.33;;;16.00;99.90;;;;;;4977924;28;20464;-74
2022/05/03 08:31:14;;;;;;;7.60;6.90;;;16.00;99.90;;;;;;4976882;28;20467;-74
2022/05/03 08:33:43;;;;;;;7.77;7.00;;;15.90;99.90;;;;;;4977870;28;20468;-74
2022/05/03 08:36:10;;;;;;;7.97;7.17;;;16.00;99.90;;;;;;4977186;28;20495;-73
2022/05/03 08:44:06;;;;;;;7.43;6.50;;;15.90;99.90;;;;;;4979487;28;20451;-74
2022/05/03 08:46:36;;;;;;;7.13;6.37;;;15.70;99.90;;;;;;4975018;28;20496;-75
2022/05/03 08:49:07;;;;;;;7.13;6.50;;;15.70;99.90;;;;;;4975241;28;20464;-75
2022/05/03 08:51:33;;;;;;;6.90;6.20;;;15.70;99.90;;;;;;4974751;28;20468;-74
2022/05/03 08:54:02;;;;;;;7.37;5.87;;;15.80;99.90;;;;;;4975046;28;20471;-75
2022/05/03 08:56:30;;;;;;;5.60;5.20;;;16.00;99.90;;;;;;4975018;28;20546;-75
2022/05/03 08:58:57;;;;;;;7.83;5.43;;;16.00;99.90;;;;;;4975843;28;20546;-75
2022/05/03 09:01:24;;;;;;;7.93;5.80;;;16.10;99.90;;;;;;4974092;28;20920;-75
2022/05/03 09:03:51;;;;;;;7.43;6.83;;;16.00;99.90;;;;;;4974812;28;20470;-75
2022/05/03 09:06:19;;;;;;;6.43;5.83;;;15.90;99.90;;;;;;4974080;28;20569;-75
2022/05/03 09:08:50;;;;;;;5.90;5.43;;;15.70;99.90;;;;;;4977004;28;20526;-75
2022/05/03 09:11:18;;;;;;;7.00;6.47;;;15.50;99.90;;;;;;4976748;28;20503;-75
2022/05/03 09:13:46;;;;;;;8.17;7.37;;;15.30;99.90;;;;;;4968666;28;20463;-74
2022/05/03 09:16:15;;;;;;;8.67;7.53;;;15.30;99.90;;;;;;4975700;28;20550;-74
2022/05/03 09:18:42;;;;;;;10.03;8.27;;;15.20;99.90;;;;;;4976840;28;21059;-74
2022/05/03 09:24:08;;;;;;;11.87;8.93;;;15.10;99.90;;;;;;4976028;28;20524;-75
2022/05/03 09:26:37;;;;;;;11.90;8.30;;;15.10;99.90;;;;;;4974278;28;20515;-74
2022/05/03 09:29:07;;;;;;;8.50;7.60;;;15.20;99.90;;;;;;4974796;28;20463;-75
2022/05/03 09:31:35;;;;;;;12.87;9.07;;;15.20;99.90;;;;;;4973120;28;20950;-76
2022/05/03 09:34:03;;;;;;;11.27;9.50;;;15.20;99.90;;;;;;4974765;28;20549;-75
2022/05/03 09:36:44;;;;;;;12.20;8.23;;;14.90;99.90;;;;;;4974132;28;20479;-74
2022/05/03 09:39:21;;;;;;;14.90;10.07;;;14.70;99.90;;;;;;4973705;28;20550;-76
2022/05/03 09:42:04;;;;;;;12.20;9.80;;;14.60;99.90;;;;;;4973403;28;20620;-74
2022/05/03 09:44:36;;;;;;;12.30;8.90;;;14.60;99.90;;;;;;4968673;28;20501;-75
2022/05/03 09:47:06;;;;;;;14.67;9.87;;;14.60;99.90;;;;;;4973859;28;20499;-75
2022/05/03 09:49:35;;;;;;;10.63;8.40;;;14.70;99.90;;;;;;4972470;28;20519;-75
2022/05/03 09:52:03;;;;;;;10.30;8.17;;;14.70;99.90;;;;;;4974281;28;20494;-74
2022/05/03 09:54:46;;;;;;;11.03;8.00;;;14.90;99.90;;;;;;4974191;28;20483;-75
2022/05/03 09:57:17;;;;;;;9.27;8.20;;;15.10;99.90;;;;;;4973968;28;20551;-75
2022/05/03 09:59:45;;;;;;;10.93;7.60;;;15.20;99.90;;;;;;4973733;28;20475;-75
2022/05/03 10:02:12;;;;;;;9.47;8.47;;;15.20;99.90;;;;;;4974557;28;20491;-76
2022/05/03 10:04:39;;;;;;;9.90;8.00;;;15.20;99.90;;;;;;4973486;28;20488;-75
2022/05/03 10:07:07;;;;;;;12.73;8.10;;;15.20;99.90;;;;;;4975001;28;20579;-75
2022/05/03 10:09:34;;;;;;;8.77;7.93;;;15.10;99.90;;;;;;4974785;28;20478;-75
2022/05/03 10:12:03;;;;;;;8.37;7.57;;;15.20;99.90;;;;;;4974843;28;20887;-76
2022/05/03 10:14:33;;;;;;;14.53;8.90;;;15.10;99.90;;;;;;4974928;28;20480;-74
2022/05/03 10:22:37;;;;;;;12.70;9.17;;;15.10;99.90;;;;;;4974560;28;20519;-75
2022/05/03 10:25:06;;;;;;;10.67;8.80;;;15.20;99.90;;;;;;4970720;28;20491;-76
2022/05/03 10:27:54;;;;;;;11.87;9.30;;;15.30;99.90;;;;;;4976101;28;20471;-75
2022/05/03 10:30:23;;;;;;;11.20;8.93;;;15.20;99.90;;;;;;4976073;28;20499;-76
2022/05/03 10:33:29;;;;;;;10.30;8.93;;;15.20;99.90;;;;;;4976012;28;20459;-76
2022/05/03 10:35:56;;;;;;;10.13;9.13;;;15.20;99.90;;;;;;4975821;28;20480;-76
2022/05/03 10:38:38;;;;;;;11.50;9.03;;;15.40;99.90;;;;;;4974861;28;20522;-75
2022/05/03 10:41:08;;;;;;;11.53;10.10;;;15.50;99.90;;;;;;4972919;28;21023;-76
2022/05/03 10:43:37;;;;;;;11.63;10.13;;;15.60;99.90;;;;;;4973508;28;20859;-76
2022/05/03 10:46:11;;;;;;;8.83;8.03;;;15.70;99.90;;;;;;4973386;28;20500;-76
2022/05/03 10:48:41;;;;;;;12.50;10.50;;;15.80;99.90;;;;;;4972953;28;20549;-76
2022/05/03 10:51:10;;;;;;;11.27;10.00;;;15.80;99.90;;;;;;4971108;28;20515;-76
2022/05/03 10:53:40;;;;;;;13.67;11.77;;;15.80;99.90;;;;;;4972343;28;20460;-76
2022/05/03 10:56:18;;;;;;;11.37;9.53;;;15.90;99.90;;;;;;4972289;28;20526;-76
2022/05/03 10:59:01;;;;;;;12.53;11.23;;;15.90;99.90;;;;;;4972790;28;20490;-74
2022/05/03 11:01:28;;;;;;;14.27;11.53;;;15.80;99.90;;;;;;4969589;28;20479;-76
2022/05/03 11:04:13;;;;;;;16.17;12.10;;;15.80;99.90;;;;;;4978829;28;20492;-76
2022/05/03 11:06:46;;;;;;;14.60;11.20;;;15.90;99.90;;;;;;4978362;28;20472;-76
2022/05/03 11:09:16;;;;;;;13.43;11.77;;;16.00;99.90;;;;;;4978885;28;20475;-75
2022/05/03 11:12:03;;;;;;;11.63;10.43;;;15.90;99.90;;;;;;4978274;28;20467;-76
2022/05/03 11:14:49;;;;;;;14.20;10.13;;;16.00;99.90;;;;;;4964290;28;20886;-74
2022/05/03 11:17:17;;;;;;;12.93;9.30;;;15.90;99.90;;;;;;4978955;28;20860;-76
2022/05/03 11:19:59;;;;;;;11.80;10.60;;;15.90;99.90;;;;;;4977473;28;20471;-72
2022/05/03 11:22:29;;;;;;;12.37;11.07;;;15.80;99.90;;;;;;4978354;28;20566;-72
2022/05/03 11:24:59;;;;;;;10.73;8.97;;;15.90;99.90;;;;;;4978183;28;21140;-71
2022/05/03 11:27:26;;;;;;;8.50;7.80;;;15.90;99.90;;;;;;4978312;28;20463;-71
2022/05/03 11:29:59;;;;;;;7.67;6.97;;;15.90;99.90;;;;;;4977694;28;20471;-71
2022/05/03 11:32:31;;;;;;;5.80;5.30;;;16.00;99.90;;;;;;4978383;28;20468;-71
2022/05/03 11:35:05;;;;;;;6.10;5.60;;;15.90;99.90;;;;;;4977302;28;20495;-71
2022/05/03 11:37:33;;;;;;;8.37;6.23;;;15.70;99.90;;;;;;4978086;28;20498;-71
2022/05/03 11:40:07;;;;;;;6.87;6.27;;;15.60;99.90;;;;;;4977356;28;20543;-70
2022/05/03 11:42:38;;;;;;;5.97;5.43;;;15.60;99.90;;;;;;4978045;28;20895;-70
2022/05/03 11:45:07;;;;;;;6.17;5.63;;;15.80;99.90;;;;;;4972934;28;20530;-70
2022/05/03 11:47:35;;;;;;;6.50;5.90;;;16.00;99.90;;;;;;4978056;28;20529;-70
2022/05/03 11:50:04;;;;;;;4.80;4.60;;;16.10;99.90;;;;;;4976984;28;20473;-71
2022/05/03 11:58:00;;;;;;;5.57;4.93;;;16.10;99.90;;;;;;4978355;28;20462;-70
2022/05/03 12:00:27;;;;;;;4.67;4.37;;;16.10;99.90;;;;;;4978675;28;20574;-70
2022/05/03 12:02:59;;;;;;;5.33;5.00;;;16.10;99.90;;;;;;4977943;28;20498;-71
2022/05/03 12:05:26;;;;;;;5.57;4.20;;;16.00;99.90;;;;;;4977391;28;20621;-70
2022/05/03 12:07:54;;;;;;;4.33;4.13;;;16.10;99.90;;;;;;4977947;28;20538;-70
2022/05/03 12:10:25;;;;;;;4.10;3.90;;;16.20;99.90;;;;;;4977088;28;20525;-69
2022/05/03 12:13:08;;;;;;;4.60;4.20;;;16.30;99.90;;;;;;4977718;28;20614;-70
2022/05/03 12:15:37;;;;;;;4.47;4.07;;;16.30;99.90;;;;;;4973254;28;20499;-70
2022/05/03 12:18:11;;;;;;;4.73;4.37;;;16.50;99.90;;;;;;4974604;28;20933;-70
2022/05/03 12:20:43;;;;;;;5.00;4.60;;;16.60;99.90;;;;;;4973374;28;20471;-70
2022/05/03 12:23:12;;;;;;;3.97;3.77;;;16.60;99.90;;;;;;4976204;28;20554;-71
2022/05/03 12:25:40;;;;;;;4.67;4.40;;;16.60;99.90;;;;;;4974301;28;20492;-70
2022/05/03 12:28:08;;;;;;;4.17;3.93;;;16.50;99.90;;;;;;4974563;28;20571;-71
2022/05/03 12:30:35;;;;;;;4.17;3.87;;;16.50;99.90;;;;;;4974011;28;20475;-70
2022/05/03 12:33:04;;;;;;;3.70;3.50;;;16.30;99.90;;;;;;4973731;28;20460;-70
2022/05/03 12:35:31;;;;;;;4.33;3.90;;;16.30;99.90;;;;;;4973163;28;21079;-70
2022/05/03 12:37:58;;;;;;;4.40;4.10;;;16.20;99.90;;;;;;4974044;28;20885;-70
2022/05/03 12:40:26;;;;;;;5.13;4.70;;;16.30;99.90;;;;;;4973492;28;20483;-70
2022/05/03 12:42:54;;;;;;;8.17;3.37;;;16.30;99.90;;;;;;4974431;28;20494;-70
2022/05/03 12:45:30;;;;;;;3.73;3.30;;;16.20;99.90;;;;;;4974380;28;20487;-70
2022/05/03 12:47:57;;;;;;;3.30;3.10;;;16.20;99.90;;;;;;4974243;28;20467;-70
2022/05/03 12:50:24;;;;;;;2.60;2.50;;;16.30;99.90;;;;;;4973545;28;20472;-70
2022/05/03 12:52:50;;;;;;;3.20;3.00;;;16.40;99.90;;;;;;4973958;28;20464;-70
2022/05/03 12:55:19;;;;;;;3.80;3.50;;;16.50;99.90;;;;;;4973997;28;20495;-70
2022/05/03 13:00:28;;;;;;;2.80;2.60;;;16.50;99.90;;;;;;4960465;28;20456;-70
2022/05/03 13:02:55;;;;;;;2.70;2.60;;;16.50;99.90;;;;;;4973751;28;20843;-70
2022/05/03 13:05:22;;;;;;;4.03;3.07;;;16.30;99.90;;;;;;4972676;28;20495;-72
2022/05/03 13:07:49;;;;;;;3.13;2.93;;;16.30;99.90;;;;;;4973640;28;21008;-70
2022/05/03 13:10:15;;;;;;;3.40;2.90;;;16.40;99.90;;;;;;4973252;28;20933;-70
2022/05/03 13:12:42;;;;;;;2.77;2.53;;;16.20;99.90;;;;;;4969206;28;20526;-71
2022/05/03 13:15:10;;;;;;;2.87;2.67;;;16.20;99.90;;;;;;4967091;28;20487;-71
2022/05/03 13:17:38;;;;;;;2.90;2.20;;;16.20;99.90;;;;;;4975420;28;20499;-71
2022/05/03 13:20:06;;;;;;;2.37;2.27;;;16.10;99.90;;;;;;4975009;28;20534;-71
2022/05/03 13:22:33;;;;;;;2.20;2.20;;;16.20;99.90;;;;;;4984948;28;20499;-71
2022/05/03 13:25:00;;;;;;;2.60;2.47;;;16.20;99.90;;;;;;4984447;28;20480;-71
2022/05/03 13:27:26;;;;;;;1.90;1.90;;;16.40;99.90;;;;;;4982402;28;20468;-72
2022/05/03 13:29:53;;;;;;;2.60;2.23;;;16.50;99.90;;;;;;4973667;28;20468;-70
2022/05/03 13:32:20;;;;;;;2.60;2.40;;;16.40;99.90;;;;;;4974006;28;20463;-70
2022/05/03 13:34:48;;;;;;;2.87;2.57;;;16.40;99.90;;;;;;4973667;28;20495;-70
2022/05/03 13:42:43;;;;;;;3.23;2.57;;;16.10;99.90;;;;;;4973269;28;20470;-72
2022/05/03 13:45:10;;;;;;;2.77;2.33;;;16.20;99.90;;;;;;4969733;28;20480;-71
2022/05/03 13:47:37;;;;;;;3.93;2.20;;;16.20;99.90;;;;;;4973931;28;20464;-70
2022/05/03 13:50:06;;;;;;;2.50;2.30;;;16.30;99.90;;;;;;4971885;28;20471;-70
2022/05/03 13:52:36;;;;;;;2.13;2.07;;;16.40;99.90;;;;;;4973107;28;20518;-71
2022/05/03 13:55:04;;;;;;;2.53;2.43;;;16.50;99.90;;;;;;4972974;28;20586;-72
2022/05/03 13:57:32;;;;;;;2.60;2.50;;;16.50;99.90;;;;;;4973131;28;20471;-70
2022/05/03 13:59:59;;;;;;;4.80;2.33;;;16.70;99.90;;;;;;4972454;28;20570;-70
2022/05/03 14:02:26;;;;;;;2.30;2.17;;;16.80;99.90;;;;;;4972821;28;20555;-70
2022/05/03 14:04:53;;;;;;;4.10;2.90;;;17.00;99.90;;;;;;4971596;28;21023;-70
2022/05/03 14:07:21;;;;;;;1.60;1.60;;;17.00;99.90;;;;;;4972518;28;20567;-69
2022/05/03 14:09:47;;;;;;;2.13;1.93;;;16.90;99.90;;;;;;4971740;28;20558;-69
2022/05/03 14:12:14;;;;;;;2.60;2.40;;;17.00;99.90;;;;;;4973401;28;20514;-69
2022/05/03 14:14:41;;;;;;;2.90;2.63;;;17.10;99.90;;;;;;4972651;28;20510;-69
2022/05/03 14:17:08;;;;;;;2.20;2.00;;;17.00;99.90;;;;;;4973621;28;20616;-71
2022/05/03 14:19:34;;;;;;;2.07;1.97;;;17.00;99.90;;;;;;4972207;28;20538;-75
2022/05/03 14:22:02;;;;;;;2.50;2.40;;;16.80;99.90;;;;;;4972097;28;20829;-71
2022/05/03 14:24:30;;;;;;;2.53;2.33;;;16.70;99.90;;;;;;4972091;28;20491;-70
2022/05/03 14:26:56;;;;;;;2.00;1.90;;;16.60;99.90;;;;;;4972534;28;20471;-71
2022/05/03 14:29:23;;;;;;;6.37;1.97;;;16.60;99.90;;;;;;4972315;28;20471;-71
2022/05/03 14:31:50;;;;;;;3.70;2.87;;;16.60;99.90;;;;;;4971815;28;20571;-71
2022/05/03 14:34:17;;;;;;;2.30;2.10;;;16.30;99.90;;;;;;4971291;28;20460;-71
2022/05/03 14:36:44;;;;;;;2.47;2.27;;;16.20;99.90;;;;;;4970679;28;20949;-71
2022/05/03 14:39:10;;;;;;;2.43;2.33;;;16.10;99.90;;;;;;4972351;28;20471;-72
2022/05/03 14:41:40;;;;;;;5.63;2.53;;;16.10;99.90;;;;;;4971558;28;20471;-71
2022/05/03 14:44:07;;;;;;;2.33;2.03;;;16.10;99.90;;;;;;4971941;28;20491;-73
2022/05/03 14:46:34;;;;;;;2.27;2.17;;;16.10;99.90;;;;;;4971718;28;20488;-71
2022/05/03 14:49:01;;;;;;;2.17;2.07;;;16.10;99.90;;;;;;4971948;28;20522;-72
2022/05/03 14:51:28;;;;;;;3.03;2.73;;;16.10;99.90;;;;;;4970280;28;20558;-71
2022/05/03 14:53:55;;;;;;;2.77;2.53;;;16.10;99.90;;;;;;4972214;28;20739;-71
2022/05/03 15:04:35;;;;;;;2.20;2.10;;;16.00;99.90;;;;;;4971022;28;20518;-72
2022/05/03 15:07:02;;;;;;;2.07;1.97;;;16.10;99.90;;;;;;4971718;28;20527;-72
2022/05/03 15:09:29;;;;;;;2.40;2.20;;;16.20;99.90;;;;;;4971477;28;20554;-71
2022/05/03 15:11:55;;;;;;;3.07;2.83;;;16.20;99.90;;;;;;4971253;28;20557;-71
2022/05/03 15:14:23;;;;;;;2.40;2.30;;;16.30;99.90;;;;;;4957550;28;20468;-71
2022/05/03 15:16:50;;;;;;;2.73;2.43;;;16.20;99.90;;;;;;4971804;28;20518;-71
2022/05/03 15:19:17;;;;;;;2.57;2.37;;;16.20;99.90;;;;;;4972021;28;20580;-71
2022/05/03 15:21:43;;;;;;;3.57;2.57;;;16.30;99.90;;;;;;4970339;28;20526;-73
2022/05/03 15:27:08;;;;;;;9.00;3.37;;;16.40;99.90;;;;;;4911775;29;20552;-72
2022/05/03 15:29:37;;;;;;;4.83;2.90;;;16.40;99.90;;;;;;4956794;28;20470;-72
2022/05/03 15:32:36;;;;;;;2.40;2.20;;;16.40;99.90;;;;;;4971491;28;20463;-71
2022/05/03 15:35:04;;;;;;;3.27;3.10;;;16.30;99.90;;;;;;4910597;29;20490;-71
2022/05/03 15:37:32;;;;;;;2.43;2.30;;;16.10;99.90;;;;;;4958853;28;20836;-71
2022/05/03 15:39:59;;;;;;;2.60;2.40;;;16.00;99.90;;;;;;4970951;28;20493;-70
2022/05/03 15:42:29;;;;;;;3.20;2.50;;;15.90;99.90;;;;;;4971119;28;20471;-71
2022/05/03 15:44:58;;;;;;;3.73;2.93;;;15.90;99.90;;;;;;4971057;28;20495;-71
2022/05/03 15:47:26;;;;;;;4.70;2.63;;;15.80;99.90;;;;;;4971236;28;20466;-71
2022/05/03 15:49:54;;;;;;;2.93;2.70;;;15.80;99.90;;;;;;4973119;28;20475;-71
2022/05/03 15:52:21;;;;;;;5.50;3.00;;;15.80;99.90;;;;;;4975061;28;20471;-71
2022/05/03 15:54:49;;;;;;;4.17;3.00;;;15.70;99.90;;;;;;4974835;28;20570;-71
2022/05/03 15:57:16;;;;;;;3.37;3.07;;;15.60;99.90;;;;;;4974871;28;21039;-72
2022/05/03 15:59:43;;;;;;;2.40;2.30;;;15.60;99.90;;;;;;4974196;28;20463;-70
2022/05/03 16:02:11;;;;;;;4.60;2.90;;;15.70;99.90;;;;;;4966357;28;20490;-71
2022/05/03 16:04:38;;;;;;;6.10;2.43;;;15.70;99.90;;;;;;4973402;28;20502;-71
2022/05/03 16:07:06;;;;;;;3.23;2.90;;;15.70;99.90;;;;;;4974495;28;20464;-71
2022/05/03 16:09:33;;;;;;;4.80;2.80;;;15.70;99.90;;;;;;4973802;28;20470;-74
2022/05/03 16:12:01;;;;;;;4.97;2.60;;;15.70;99.90;;;;;;4974373;28;20816;-69
2022/05/03 16:14:27;;;;;;;2.50;2.23;;;15.70;99.90;;;;;;4974316;28;20883;-69
2022/05/03 16:16:55;;;;;;;3.53;2.60;;;15.80;99.90;;;;;;4997238;23;20866;-71
2022/05/03 16:19:23;;;;;;;4.20;3.07;;;15.80;99.90;;;;;;4974335;28;20459;-70
2022/05/03 16:21:51;;;;;;;7.60;3.00;;;15.70;99.90;;;;;;4973604;28;20548;-72
2022/05/03 16:24:18;;;;;;;2.60;2.40;;;15.70;99.90;;;;;;4974353;28;20491;-71
2022/05/03 16:26:46;;;;;;;7.13;2.90;;;15.60;99.90;;;;;;4974239;28;20480;-71
2022/05/03 16:29:13;;;;;;;3.20;2.60;;;15.60;99.90;;;;;;4974330;28;20464;-72
2022/05/03 16:31:40;;;;;;;5.67;2.77;;;15.50;99.90;;;;;;4973465;28;20476;-71
2022/05/03 16:34:07;;;;;;;3.43;3.13;;;15.50;99.90;;;;;;4989094;28;20493;-71
2022/05/03 16:42:12;;;;;;;4.23;2.80;;;15.50;99.90;;;;;;4993439;28;20454;-70
2022/05/03 16:44:40;;;;;;;3.03;2.83;;;15.40;99.90;;;;;;4993405;28;20475;-70
2022/05/03 16:47:08;;;;;;;8.30;3.13;;;15.30;99.90;;;;;;4993557;28;20855;-70
2022/05/03 16:49:38;;;;;;;3.27;3.07;;;15.20;99.90;;;;;;4992306;28;20470;-70
2022/05/03 16:52:07;;;;;;;5.47;2.97;;;15.10;99.90;;;;;;4993347;28;20540;-70
2022/05/03 16:54:35;;;;;;;3.27;2.93;;;15.00;99.90;;;;;;4993274;28;20491;-70
2022/05/03 16:57:02;;;;;;;3.20;3.00;;;15.00;99.90;;;;;;4993211;28;20494;-70
2022/05/03 16:59:29;;;;;;;7.30;3.13;;;15.00;99.90;;;;;;4992779;28;20801;-70
2022/05/03 17:01:56;;;;;;;3.60;3.30;;;14.90;99.90;;;;;;4992444;28;20513;-70
2022/05/03 17:04:23;;;;;;;7.87;2.70;;;14.90;99.90;;;;;;4992715;28;20467;-70
2022/05/03 17:06:50;;;;;;;8.43;2.70;;;14.80;99.90;;;;;;4992930;28;20975;-70
2022/05/03 17:09:18;;;;;;;7.03;3.10;;;14.70;99.90;;;;;;4993552;28;20505;-70
2022/05/03 17:11:45;;;;;;;3.93;2.60;;;14.60;99.90;;;;;;4992377;28;20537;-70
2022/05/03 17:14:14;;;;;;;3.60;2.90;;;14.50;99.90;;;;;;4979312;28;20486;-70
2022/05/03 17:16:42;;;;;;;8.97;3.40;;;14.50;99.90;;;;;;4965635;28;20491;-70
2022/05/03 17:19:09;;;;;;;5.57;3.43;;;14.30;99.90;;;;;;4973304;28;20949;-70
2022/05/03 17:21:37;;;;;;;5.27;2.50;;;14.30;99.90;;;;;;4971693;28;20474;-69
2022/05/03 17:24:05;;;;;;;3.37;2.80;;;14.10;99.90;;;;;;4973326;28;20467;-70
2022/05/03 17:26:34;;;;;;;3.00;2.80;;;14.10;99.90;;;;;;4973294;28;20510;-69
2022/05/03 17:29:01;;;;;;;5.33;3.50;;;14.00;99.90;;;;;;4973133;28;20494;-69
2022/05/03 17:31:30;;;;;;;4.67;2.80;;;13.90;99.90;;;;;;4972669;28;20571;-70
2022/05/03 17:33:57;;;;;;;4.20;3.05;;;13.90;99.90;;;;;;4972772;28;20518;-70
2022/05/03 17:36:24;;;;;;;6.90;3.60;;;13.80;99.90;;;;;;4972077;28;20232;-70
2022/05/03 17:38:52;;;;;;;4.53;3.43;;;13.80;99.90;;;;;;4973579;28;20514;-69
2022/05/03 17:41:20;;;;;;;5.63;3.20;;;13.70;99.90;;;;;;4972574;28;20464;-69